Time;durP1;ratioP1;P1;durP2;ratioP2;P2;SDS_P1;SDS_P2;PMS_P1;PMS_P2;Temp;Humidity;BMP_temperature;BMP_pressure;BME280_temperature;BME280_humidity;BME280_pressure;Samples;Min_cycle;Max_cycle;Signal;HPM_P1;HPM_P2
2023/06/22 00:02:59;;;;;;;;;10.00;10.00;;;;;23.57;52.35;101149.03;146614;667;46024;-70
2023/06/22 00:06:16;;;;;;;;;;;;;;;;;;;;;
2023/06/22 00:09:14;;;;;;;;;7.75;7.00;;;;;23.55;53.35;101142.84;146618;579;46012;-69
2023/06/22 00:12:21;;;;;;;;;9.75;9.75;;;;;23.49;53.17;101139.31;146621;582;46012;-69
2023/06/22 00:15:28;;;;;;;;;15.00;12.75;;;;;23.43;52.99;101143.69;146616;681;46012;-68
2023/06/22 00:18:27;;;;;;;;;10.50;10.50;;;;;23.38;53.50;101156.88;146619;636;46020;-70
2023/06/22 00:21:23;;;;;;;;;10.75;9.00;;;;;23.40;53.67;101159.56;146611;626;47037;-68
2023/06/22 00:24:16;;;;;;;;;11.00;11.00;;;;;23.45;53.69;101163.09;146621;589;46010;-67
2023/06/22 00:27:28;;;;;;;;;11.75;10.25;;;;;23.46;53.88;101149.88;146616;564;46016;-69
2023/06/22 00:30:24;;;;;;;;;11.00;11.00;;;;;23.46;53.50;101152.53;146617;649;46010;-68
2023/06/22 00:33:21;;;;;;;;;10.00;9.75;;;;;23.45;53.71;101148.09;146612;652;48014;-67
2023/06/22 00:36:16;;;;;;;;;14.50;11.50;;;;;23.42;53.56;101147.19;146615;605;46021;-68
2023/06/22 00:39:28;;;;;;;;;11.25;10.25;;;;;23.35;53.43;101156.00;146617;563;46012;-68
2023/06/22 00:42:34;;;;;;;;;9.75;9.00;;;;;23.31;53.30;101157.72;146615;591;46010;-69
2023/06/22 00:45:22;;;;;;;;;13.75;13.00;;;;;23.27;54.57;101161.22;146707;594;46012;-69
2023/06/22 00:48:43;;;;;;;;;8.00;8.00;;;;;23.16;54.67;101155.00;146618;719;46016;-66
2023/06/22 00:51:45;;;;;;;;;13.50;12.50;;;;;23.04;54.70;101161.06;146629;573;46021;-66
2023/06/22 00:54:45;;;;;;;;;9.00;9.00;;;;;22.97;54.76;101154.88;146617;587;46016;-67
2023/06/22 00:57:44;;;;;;;;;10.75;10.75;;;;;22.87;55.26;101154.75;146628;618;46014;-65
2023/06/22 01:00:51;;;;;;;;;12.25;10.50;;;;;22.73;55.04;101141.41;146617;668;46916;-69
2023/06/22 01:03:46;;;;;;;;;8.33;7.33;;;;;22.71;56.29;101153.72;146626;595;45020;-69
2023/06/22 01:07:05;;;;;;;;;13.50;12.00;;;;;22.66;55.33;101148.41;146624;612;46013;-70
2023/06/22 01:10:46;;;;;;;;;11.00;10.75;;;;;22.66;55.68;101151.06;146621;679;46022;-70
2023/06/22 01:14:01;;;;;;;;;12.50;10.75;;;;;22.64;55.48;101157.19;146617;635;46016;-69
2023/06/22 01:17:09;;;;;;;;;12.75;11.50;;;;;22.59;56.33;101152.78;146617;677;46030;-70
2023/06/22 01:20:21;;;;;;;;;11.50;11.50;;;;;22.54;56.31;101146.53;146616;615;46016;-69
2023/06/22 01:24:05;;;;;;;;;15.00;11.50;;;;;22.47;55.35;101142.09;146620;641;46020;-70
2023/06/22 01:27:21;;;;;;;;;12.00;11.00;;;;;22.50;56.06;101142.13;146615;650;46016;-69
2023/06/22 01:30:43;;;;;;;;;14.25;11.75;;;;;21.54;54.86;100982.72;146621;635;46010;-68
2023/06/22 01:33:39;;;;;;;;;11.75;11.75;;;;;22.47;56.42;101141.22;146615;624;46035;-70
2023/06/22 01:36:47;;;;;;;;;10.00;8.25;;;;;22.49;56.11;101147.38;146620;570;47010;-69
2023/06/22 01:39:46;;;;;;;;;12.50;12.00;;;;;22.51;56.24;101135.06;146623;605;46016;-69
2023/06/22 01:42:43;;;;;;;;;10.25;10.25;;;;;22.52;55.88;101140.38;146621;668;46020;-68
2023/06/22 01:45:38;;;;;;;;;10.50;10.00;;;;;22.56;56.38;101138.66;146633;631;46012;-70
2023/06/22 01:49:04;;;;;;;;;13.00;10.00;;;;;22.56;55.50;101141.28;146632;625;45010;-70
2023/06/22 01:52:07;;;;;;;;;11.50;11.50;;;;;22.46;55.00;101135.03;146631;573;46012;-69
2023/06/22 01:55:04;;;;;;;;;11.25;10.00;;;;;22.41;55.04;101135.88;146634;684;45037;-70
2023/06/22 01:58:01;;;;;;;;;9.50;9.00;;;;;22.44;55.39;101135.91;146629;692;45016;-70
2023/06/22 02:01:34;;;;;;;;;11.75;10.75;;;;;22.51;54.71;101143.88;146644;615;45020;-70
2023/06/22 02:05:02;;;;;;;;;13.00;11.75;;;;;22.57;54.07;101141.28;146632;565;46010;-71
2023/06/22 02:08:23;;;;;;;;;14.25;9.75;;;;;22.71;53.33;101143.16;146635;581;45021;-69
2023/06/22 02:11:27;;;;;;;;;15.50;12.75;;;;;21.96;53.33;100989.25;146635;575;46016;-70
2023/06/22 02:14:33;;;;;;;;;12.00;10.00;;;;;22.95;53.82;101140.72;146634;666;45021;-70
2023/06/22 02:17:35;;;;;;;;;16.75;13.25;;;;;22.98;54.60;101146.03;146630;569;45034;-70
2023/06/22 02:20:31;;;;;;;;;10.50;10.00;;;;;22.96;54.71;101142.53;146635;570;45020;-69
2023/06/22 02:23:23;;;;;;;;;13.50;12.25;;;;;22.96;55.28;101147.81;146634;601;45012;-69
2023/06/22 02:26:15;;;;;;;;;10.00;10.00;;;;;22.97;55.81;101143.41;146634;640;45020;-70
2023/06/22 02:29:09;;;;;;;;;11.75;10.50;;;;;22.99;56.12;101153.13;146632;682;46012;-70
2023/06/22 02:32:17;;;;;;;;;13.50;10.00;;;;;22.99;56.52;101146.94;146633;647;45020;-69
2023/06/22 02:35:16;;;;;;;;;10.50;10.50;;;;;22.98;56.33;101156.63;146634;596;46013;-69
2023/06/22 02:38:19;;;;;;;;;10.50;10.50;;;;;22.95;57.31;101158.38;146632;722;45020;-70
2023/06/22 02:41:18;;;;;;;;;11.25;10.50;;;;;22.91;57.05;101157.44;146633;612;45915;-69
2023/06/22 02:44:21;;;;;;;;;15.50;12.00;;;;;22.89;56.17;101167.09;146620;580;47010;-70
2023/06/22 02:47:19;;;;;;;;;13.25;11.75;;;;;22.88;56.41;101165.34;146611;740;46016;-70
2023/06/22 02:50:14;;;;;;;;;10.25;9.25;;;;;22.87;56.50;101171.50;146612;711;47010;-70
2023/06/22 02:53:16;;;;;;;;;12.50;10.25;;;;;22.90;56.68;101182.13;146617;573;46016;-69
2023/06/22 02:56:11;;;;;;;;;8.50;8.50;;;;;22.95;56.53;101180.41;146614;626;46020;-68
2023/06/22 02:59:03;;;;;;;;;13.00;11.50;;;;;23.00;56.85;101178.69;146615;653;46017;-68
2023/06/22 03:02:01;;;;;;;;;12.50;9.75;;;;;23.07;57.45;101182.25;146614;623;46020;-68
2023/06/22 03:05:16;;;;;;;;;13.00;11.00;;;;;22.10;56.91;101024.59;146617;570;46017;-68
2023/06/22 03:08:16;;;;;;;;;14.25;13.00;;;;;22.96;57.64;101186.56;146614;586;46020;-67
2023/06/22 03:11:11;;;;;;;;;14.50;11.25;;;;;22.81;57.77;101187.31;146611;675;46913;-68
2023/06/22 03:14:04;;;;;;;;;11.50;11.00;;;;;22.71;58.33;101180.16;146611;577;47014;-69
2023/06/22 03:17:03;;;;;;;;;14.25;12.50;;;;;22.64;58.60;101178.34;146607;647;47014;-67
2023/06/22 03:20:24;;;;;;;;;11.25;10.75;;;;;22.53;58.01;101170.34;146615;670;46010;-69
2023/06/22 03:23:45;;;;;;;;;10.25;10.00;;;;;22.50;58.63;101181.75;146611;618;46012;-67
2023/06/22 03:26:39;;;;;;;;;9.50;7.75;;;;;22.48;58.68;101191.41;146615;590;46011;-67
2023/06/22 03:29:49;;;;;;;;;14.00;13.50;;;;;22.45;58.70;101178.16;146617;592;46016;-68
2023/06/22 03:32:49;;;;;;;;;11.50;10.00;;;;;22.35;58.57;101189.53;146610;732;46020;-69
2023/06/22 03:35:55;;;;;;;;;9.50;9.00;;;;;22.25;59.03;101182.37;146613;731;46012;-69
2023/06/22 03:38:51;;;;;;;;;10.25;9.50;;;;;22.22;58.66;101190.28;146622;609;46010;-68
2023/06/22 03:41:55;;;;;;;;;12.75;11.00;;;;;22.25;58.94;101185.91;146618;661;46016;-70
2023/06/22 03:44:57;;;;;;;;;12.00;11.00;;;;;22.25;58.86;101191.19;146612;656;46020;-69
2023/06/22 03:48:05;;;;;;;;;10.50;10.50;;;;;22.25;59.33;101187.66;146612;595;46016;-69
2023/06/22 03:51:09;;;;;;;;;11.00;11.00;;;;;22.24;59.89;101180.59;146611;642;47021;-68
2023/06/22 03:54:04;;;;;;;;;12.00;11.00;;;;;22.27;60.20;101189.44;146611;603;47012;-69
2023/06/22 03:56:57;;;;;;;;;10.50;8.50;;;;;22.36;60.06;101192.16;146613;707;46021;-69
2023/06/22 03:59:52;;;;;;;;;11.75;9.25;;;;;22.46;60.56;101193.19;146617;629;46016;-68
2023/06/22 04:02:50;;;;;;;;;10.50;8.75;;;;;22.55;59.96;101185.34;146618;687;46020;-68
2023/06/22 04:05:48;;;;;;;;;11.75;9.25;;;;;22.62;59.41;101196.84;146617;634;46017;-69
2023/06/22 04:08:50;;;;;;;;;15.50;10.75;;;;;22.68;60.21;101188.06;146622;565;46012;-69
2023/06/22 04:11:54;;;;;;;;;11.75;11.50;;;;;22.72;60.29;101196.06;146611;581;46016;-69
2023/06/22 04:14:51;;;;;;;;;13.25;12.00;;;;;22.71;61.84;101185.44;146612;647;46020;-68
2023/06/22 04:17:50;;;;;;;;;13.50;11.50;;;;;22.71;62.15;101190.75;146607;614;46015;-69
2023/06/22 04:20:46;;;;;;;;;12.25;11.75;;;;;22.71;61.72;101194.28;146611;691;46916;-69
2023/06/22 04:23:43;;;;;;;;;12.50;11.75;;;;;22.77;61.59;101190.78;146608;631;46014;-68
2023/06/22 04:26:54;;;;;;;;;12.00;11.00;;;;;22.84;61.91;101197.94;146616;696;46020;-68
2023/06/22 04:29:55;;;;;;;;;10.00;9.00;;;;;22.93;62.74;101205.03;146609;582;47016;-68
2023/06/22 04:32:57;;;;;;;;;14.75;13.25;;;;;23.07;62.39;101205.19;146622;565;46010;-69
2023/06/22 04:36:13;;;;;;;;;9.00;9.00;;;;;23.27;60.48;101209.75;146612;590;46014;-68
2023/06/22 04:39:21;;;;;;;;;10.50;9.00;;;;;23.48;60.26;101211.62;146620;571;47010;-69
2023/06/22 04:42:31;;;;;;;;;11.75;11.00;;;;;23.72;58.64;101208.28;146617;687;46013;-69
2023/06/22 04:45:44;;;;;;;;;11.75;10.75;;;;;24.01;57.76;101209.28;146632;661;46010;-69
2023/06/22 04:48:47;;;;;;;;;11.25;10.25;;;;;24.30;59.37;101215.56;146629;570;46012;-70
2023/06/22 04:51:58;;;;;;;;;13.50;12.00;;;;;24.53;55.20;101217.41;146634;569;45010;-70
2023/06/22 04:54:59;;;;;;;;;17.75;15.00;;;;;24.65;55.05;101206.81;146632;579;45912;-69
2023/06/22 04:57:54;;;;;;;;;12.75;11.75;;;;;24.69;55.65;101205.06;146636;629;45020;-67
2023/06/22 05:00:51;;;;;;;;;10.25;8.75;;;;;24.71;56.16;101212.13;146632;565;45012;-68
2023/06/22 05:04:12;;;;;;;;;;;;;;;;;;;;;
2023/06/22 05:07:25;;;;;;;;;12.75;11.50;;;;;24.63;55.18;101228.03;146628;586;46012;-68
2023/06/22 05:10:22;;;;;;;;;14.50;11.75;;;;;24.62;56.13;101233.34;146637;649;45020;-68
2023/06/22 05:13:15;;;;;;;;;12.75;12.25;;;;;24.60;54.72;101243.03;146634;577;45016;-68
2023/06/22 05:16:10;;;;;;;;;11.00;9.25;;;;;24.57;55.85;101243.91;146632;570;46030;-70
2023/06/22 05:19:06;;;;;;;;;11.50;10.50;;;;;24.55;56.98;101240.41;146635;659;45034;-69
2023/06/22 05:22:24;;;;;;;;;9.75;9.75;;;;;22.49;56.58;100891.97;146635;569;45020;-69
2023/06/22 05:25:19;;;;;;;;;13.00;13.00;;;;;24.51;56.29;101249.22;146638;574;45012;-68
2023/06/22 05:28:17;;;;;;;;;15.00;13.50;;;;;24.52;57.73;101248.34;146635;659;45010;-69
2023/06/22 05:31:22;;;;;;;;;13.50;12.25;;;;;24.60;59.97;101245.69;146634;577;45012;-69
2023/06/22 05:34:27;;;;;;;;;16.75;12.25;;;;;23.61;59.47;101063.47;146635;633;45014;-69
2023/06/22 05:37:20;;;;;;;;;12.00;12.00;;;;;24.75;62.22;101245.72;146632;635;45016;-70
2023/06/22 05:40:31;;;;;;;;;12.00;12.00;;;;;24.95;62.27;101252.81;146633;608;45021;-69
2023/06/22 05:43:43;;;;;;;;;16.00;12.00;;;;;24.23;58.99;101081.28;146627;605;46012;-69
2023/06/22 05:46:51;;;;;;;;;13.75;12.75;;;;;25.41;60.20;101264.31;146615;582;46020;-69
2023/06/22 05:49:51;;;;;;;;;19.25;16.25;;;;;25.56;57.89;101263.41;146611;713;46013;-70
2023/06/22 05:52:49;;;;;;;;;20.25;13.75;;;;;25.75;55.68;101254.50;146612;576;47010;-69
2023/06/22 05:55:44;;;;;;;;;15.25;13.00;;;;;25.93;55.07;101268.69;146611;603;46012;-69
2023/06/22 05:58:54;;;;;;;;;48.50;40.75;;;;;26.05;55.25;101273.06;146614;616;46010;-67
2023/06/22 06:01:50;;;;;;;;;18.00;17.25;;;;;26.18;54.65;101275.66;146611;613;46012;-69
2023/06/22 06:04:46;;;;;;;;;16.50;15.50;;;;;26.41;53.04;101272.00;146606;698;47020;-68
2023/06/22 06:07:50;;;;;;;;;;;;;;;;;;;;;
2023/06/22 06:10:48;;;;;;;;;14.25;12.50;;;;;26.54;52.02;101268.41;146613;601;46015;-69
2023/06/22 06:13:40;;;;;;;;;13.25;12.75;;;;;26.52;52.82;101274.66;146611;683;46016;-68
2023/06/22 06:16:43;;;;;;;;;14.00;12.25;;;;;26.54;52.34;101275.50;146614;690;46020;-67
2023/06/22 06:20:00;;;;;;;;;15.00;12.00;;;;;26.76;51.79;101271.84;146613;648;46016;-68
2023/06/22 06:22:58;;;;;;;;;14.25;12.00;;;;;26.93;52.21;101283.22;146613;618;46020;-74
2023/06/22 06:25:51;;;;;;;;;13.00;12.00;;;;;27.17;53.35;101274.19;146609;651;47021;-70
2023/06/22 06:29:11;;;;;;;;;14.00;12.75;;;;;27.48;50.49;101279.25;146612;577;46010;-70
2023/06/22 06:32:16;;;;;;;;;17.50;16.00;;;;;27.72;50.26;101282.53;146611;578;46915;-71
2023/06/22 06:35:16;;;;;;;;;13.50;12.50;;;;;27.92;49.11;101280.59;146605;627;46020;-69
2023/06/22 06:38:14;;;;;;;;;13.00;11.50;;;;;28.18;49.15;101284.72;146614;647;45913;-72
2023/06/22 06:41:12;;;;;;;;;14.00;12.00;;;;;28.46;49.03;101280.81;146613;705;46020;-68
2023/06/22 06:44:05;;;;;;;;;11.00;11.00;;;;;28.72;46.19;101283.12;146607;612;47012;-67
2023/06/22 06:47:03;;;;;;;;;10.25;8.75;;;;;28.83;45.68;101292.75;146607;569;47021;-68
2023/06/22 06:50:07;;;;;;;;;10.75;10.25;;;;;28.83;46.34;101284.72;146609;578;46584;-67
2023/06/22 06:53:11;;;;;;;;;10.33;10.00;;;;;28.88;44.90;101277.50;146608;573;46010;-67
2023/06/22 06:56:10;;;;;;;;;11.25;10.25;;;;;28.82;44.38;101280.28;146603;579;46013;-67
2023/06/22 06:59:16;;;;;;;;;11.00;9.50;;;;;28.74;45.25;101280.41;146605;577;47010;-67
2023/06/22 07:02:09;;;;;;;;;11.00;10.75;;;;;28.68;44.56;101289.38;146609;689;48013;-68
2023/06/22 07:05:02;;;;;;;;;10.00;9.25;;;;;28.58;44.71;101284.22;146602;571;46020;-67
2023/06/22 07:07:55;;;;;;;;;9.67;9.00;;;;;28.48;46.12;101281.69;146611;605;46016;-66
2023/06/22 07:10:47;;;;;;;;;12.25;11.00;;;;;28.41;46.00;101277.34;146614;564;46021;-66
2023/06/22 07:13:49;;;;;;;;;12.00;11.00;;;;;28.45;46.79;101273.72;146603;656;47012;-67
2023/06/22 07:16:39;;;;;;;;;10.25;8.50;;;;;28.65;46.90;101276.09;146702;597;46022;-67
2023/06/22 07:19:56;;;;;;;;;11.50;10.50;;;;;28.81;44.86;101263.38;146620;622;46016;-70
2023/06/22 07:22:58;;;;;;;;;10.00;8.67;;;;;29.13;43.86;101276.28;146621;572;47010;-70
2023/06/22 07:25:57;;;;;;;;;10.00;10.00;;;;;29.39;42.16;101275.81;146620;565;46014;-72
2023/06/22 07:29:01;;;;;;;;;12.00;10.00;;;;;29.61;43.02;101273.66;146621;621;46020;-70
2023/06/22 07:32:06;;;;;;;;;12.00;10.00;;;;;29.81;44.26;101278.59;146619;586;46015;-70
2023/06/22 07:35:16;;;;;;;;;11.50;10.50;;;;;29.20;44.06;101146.19;146618;607;48010;-70
2023/06/22 07:38:28;;;;;;;;;12.00;9.25;;;;;29.91;43.85;101234.75;146619;620;46016;-70
2023/06/22 07:41:37;;;;;;;;;13.75;10.25;;;;;30.35;41.50;101273.06;146616;639;47014;-71
2023/06/22 07:44:38;;;;;;;;;9.00;6.00;;;;;30.46;43.23;101267.44;146616;600;46016;-71
2023/06/22 07:47:39;;;;;;;;;9.25;7.25;;;;;30.56;42.06;101263.69;146624;652;46020;-72
2023/06/22 07:50:43;;;;;;;;;12.75;10.00;;;;;30.49;42.98;101267.37;146618;694;46012;-70
2023/06/22 07:53:46;;;;;;;;;9.00;9.00;;;;;30.35;43.65;101280.22;146621;630;46014;-71
2023/06/22 07:56:45;;;;;;;;;9.00;8.50;;;;;30.24;43.21;101277.75;146619;594;46016;-71
2023/06/22 07:59:38;;;;;;;;;12.25;10.00;;;;;30.23;41.91;101276.00;146622;653;46010;-71
2023/06/22 08:02:36;;;;;;;;;9.00;9.00;;;;;30.21;43.22;101279.62;146620;654;47012;-71
2023/06/22 08:05:59;;;;;;;;;10.50;10.50;;;;;30.25;44.16;101276.88;146623;651;46010;-71
2023/06/22 08:08:59;;;;;;;;;9.50;9.25;;;;;30.34;42.00;101281.09;146619;582;46016;-71
2023/06/22 08:12:04;;;;;;;;;7.67;7.67;;;;;30.39;40.55;101287.25;146624;648;46020;-70
2023/06/22 08:15:13;;;;;;;;;9.00;8.33;;;;;30.43;38.86;101277.34;146623;687;46012;-70
2023/06/22 08:18:31;;;;;;;;;7.67;7.67;;;;;30.51;41.77;101278.06;146623;670;46021;-71
2023/06/22 08:21:38;;;;;;;;;9.00;8.67;;;;;30.68;42.37;101283.91;146621;569;46012;-71
2023/06/22 08:24:40;;;;;;;;;9.00;9.00;;;;;30.81;37.81;101274.72;146627;614;45021;-70
2023/06/22 08:27:37;;;;;;;;;10.00;10.00;;;;;30.76;39.74;101265.00;146619;643;46012;-70
2023/06/22 08:30:39;;;;;;;;;9.67;9.67;;;;;30.81;41.41;101280.06;146625;589;46010;-71
2023/06/22 08:34:06;;;;;;;;;9.33;9.33;;;;;31.02;38.05;101277.78;146622;583;46012;-71
2023/06/22 08:37:04;;;;;;;;;9.33;8.67;;;;;31.12;39.11;101271.25;146624;588;46020;-71
2023/06/22 08:40:04;;;;;;;;;10.50;9.25;;;;;31.28;38.68;101275.31;146616;644;46017;-71
2023/06/22 08:43:39;;;;;;;;;8.67;8.00;;;;;31.46;40.34;101275.78;146624;583;47012;-73
2023/06/22 08:46:56;;;;;;;;;;;;;;;;;;;;;
2023/06/22 08:50:19;;;;;;;;;8.00;8.00;;;;;31.68;41.28;101244.81;146624;566;46020;-71
2023/06/22 08:53:24;;;;;;;;;8.33;7.33;;;;;31.88;35.85;101264.78;146622;609;46012;-72
2023/06/22 08:56:22;;;;;;;;;9.67;9.00;;;;;31.96;36.32;101268.16;146622;569;46010;-71
2023/06/22 08:59:33;;;;;;;;;8.00;7.33;;;;;32.07;36.16;101268.72;146622;600;46012;-70
2023/06/22 09:02:36;;;;;;;;;8.67;8.00;;;;;32.13;34.41;101263.19;146625;564;46021;-72
2023/06/22 09:05:39;;;;;;;;;11.00;9.67;;;;;32.08;34.27;101265.09;146622;676;46012;-70
2023/06/22 09:08:39;;;;;;;;;9.67;8.67;;;;;31.95;36.39;101269.09;146620;632;46021;-72
2023/06/22 09:11:33;;;;;;;;;10.00;8.00;;;;;31.77;34.73;101262.41;146621;672;47012;-71
2023/06/22 09:14:32;;;;;;;;;9.75;8.75;;;;;31.72;36.36;101273.28;146621;637;46020;-71
2023/06/22 09:17:25;;;;;;;;;7.50;7.00;;;;;31.72;33.54;101262.56;146618;624;46012;-73
2023/06/22 09:20:24;;;;;;;;;8.67;8.00;;;;;31.67;35.40;101256.41;146621;624;46029;-73
2023/06/22 09:23:31;;;;;;;;;;;;;;;;;;;;;
2023/06/22 09:26:38;;;;;;;;;9.33;8.00;;;;;31.65;36.99;101269.00;146625;573;46010;-71
2023/06/22 09:29:41;;;;;;;;;8.33;8.33;;;;;31.82;36.29;101265.84;146623;575;46012;-71
2023/06/22 09:32:43;;;;;;;;;6.33;6.33;;;;;31.87;32.36;101263.00;146625;609;46020;-70
2023/06/22 09:35:43;;;;;;;;;7.33;7.33;;;;;31.05;33.49;101123.22;146621;564;46016;-71
2023/06/22 09:38:47;;;;;;;;;7.33;6.33;;;;;31.99;33.08;101262.69;146625;639;46010;-71
2023/06/22 09:41:32;;;;;;;;;8.50;7.25;;;;;32.09;34.95;101271.34;146710;564;46014;-71
2023/06/22 09:44:41;;;;;;;;;8.75;8.75;;;;;32.20;33.79;101266.56;146623;577;46014;-71
2023/06/22 09:47:52;;;;;;;;;8.50;8.00;;;;;32.30;32.59;101251.91;146625;581;47020;-70
2023/06/22 09:50:54;;;;;;;;;8.75;8.75;;;;;32.29;33.36;101249.31;146625;646;46014;-70
2023/06/22 09:54:05;;;;;;;;;7.33;7.00;;;;;32.23;31.45;101245.00;146628;638;46021;-70
2023/06/22 09:57:05;;;;;;;;;5.75;5.25;;;;;32.17;31.01;101246.06;146622;654;47016;-71
2023/06/22 10:00:09;;;;;;;;;9.00;7.67;;;;;32.13;35.11;101247.09;146630;588;46020;-72
2023/06/22 10:03:08;;;;;;;;;8.25;6.00;;;;;32.17;31.76;101242.50;146622;602;46917;-70
2023/06/22 10:06:24;;;;;;;;;8.67;6.67;;;;;32.17;31.76;101240.69;146627;715;47020;-70
2023/06/22 10:09:35;;;;;;;;;6.67;6.00;;;;;32.18;32.29;101238.88;146627;688;46012;-71
2023/06/22 10:12:27;;;;;;;;;7.25;7.00;;;;;32.20;33.33;101240.59;146628;671;46020;-72
2023/06/22 10:15:22;;;;;;;;;8.00;6.75;;;;;32.33;34.03;101241.09;146623;584;47012;-70
2023/06/22 10:18:35;;;;;;;;;7.75;6.75;;;;;32.48;33.82;101239.78;146632;586;46029;-70
2023/06/22 10:21:29;;;;;;;;;5.50;5.50;;;;;32.53;32.78;101237.84;146625;661;46014;-70
2023/06/22 10:24:35;;;;;;;;;7.00;7.00;;;;;32.58;32.88;101245.72;146627;716;47010;-70
2023/06/22 10:27:28;;;;;;;;;6.25;6.25;;;;;32.62;33.36;101233.97;146624;697;47042;-70
2023/06/22 10:30:26;;;;;;;;;8.00;7.75;;;;;32.69;32.59;101231.97;146627;682;47012;-70
2023/06/22 10:33:37;;;;;;;;;7.25;7.25;;;;;32.72;33.71;101230.06;146617;695;47014;-70
2023/06/22 10:36:46;;;;;;;;;10.25;9.00;;;;;32.77;35.67;101225.38;146629;675;46021;-71
2023/06/22 10:39:45;;;;;;;;;8.25;7.75;;;;;32.86;34.79;101224.22;146621;565;46016;-70
2023/06/22 10:42:50;;;;;;;;;9.50;8.00;;;;;32.92;33.71;101226.69;146622;570;46010;-72
2023/06/22 10:45:49;;;;;;;;;;;;;;;;;;;;;
2023/06/22 10:49:00;;;;;;;;;10.50;8.25;;;;;32.97;34.83;101224.78;146622;660;46016;-71
2023/06/22 10:51:56;;;;;;;;;6.75;6.75;;;;;32.99;34.58;101216.66;146623;666;47010;-70
2023/06/22 10:54:52;;;;;;;;;7.75;7.75;;;;;32.98;34.90;101221.16;146618;700;47016;-71
2023/06/22 10:58:00;;;;;;;;;9.00;9.00;;;;;31.97;36.83;101056.22;146623;570;47010;-71
2023/06/22 11:01:17;;;;;;;;;6.75;6.75;;;;;32.53;37.29;101154.63;146617;675;46016;-71
2023/06/22 11:04:18;;;;;;;;;6.75;6.50;;;;;32.82;34.22;101217.19;146622;636;47010;-72
2023/06/22 11:07:34;;;;;;;;;8.25;8.25;;;;;31.36;34.27;100984.88;146616;673;48012;-70
2023/06/22 11:10:36;;;;;;;;;10.75;10.75;;;;;32.56;34.37;101202.84;146623;644;46010;-70
2023/06/22 11:13:29;;;;;;;;;8.50;7.75;;;;;32.54;33.10;101209.19;146612;581;46914;-71
2023/06/22 11:16:42;;;;;;;;;7.00;7.00;;;;;31.33;36.32;101003.69;146623;585;46014;-71
2023/06/22 11:19:57;;;;;;;;;8.00;7.25;;;;;32.55;36.53;101208.25;146614;587;47914;-71
2023/06/22 11:22:51;;;;;;;;;7.00;6.67;;;;;32.63;34.33;101214.25;146623;640;47010;-72
2023/06/22 11:26:10;;;;;;;;;9.00;9.00;;;;;32.69;35.04;101205.12;146617;717;46012;-71
2023/06/22 11:29:31;;;;;;;;;7.00;7.00;;;;;32.73;36.37;101213.00;146624;564;46025;-70
2023/06/22 11:32:37;;;;;;;;;7.33;7.00;;;;;32.76;35.08;101212.91;146616;576;46016;-70
2023/06/22 11:35:38;;;;;;;;;7.75;7.50;;;;;32.78;34.47;101204.81;146624;565;46010;-70
2023/06/22 11:38:30;;;;;;;;;7.00;7.00;;;;;32.80;34.78;101213.69;146618;569;46012;-71
2023/06/22 11:41:23;;;;;;;;;5.67;5.67;;;;;32.79;35.11;101206.56;146622;678;46020;-70
2023/06/22 11:44:18;;;;;;;;;7.33;6.33;;;;;32.79;34.12;101206.56;146618;587;46013;-72
2023/06/22 11:47:10;;;;;;;;;6.33;6.33;;;;;32.77;34.30;101203.91;146615;583;47010;-69
2023/06/22 11:50:12;;;;;;;;;6.25;5.75;;;;;32.78;33.61;101200.31;146609;624;46017;-70
2023/06/22 11:53:27;;;;;;;;;9.25;8.25;;;;;32.86;34.81;101205.41;146618;692;46010;-70
2023/06/22 11:56:20;;;;;;;;;8.00;7.00;;;;;32.89;33.38;101199.94;146611;677;46016;-69
2023/06/22 11:59:22;;;;;;;;;7.33;7.00;;;;;32.89;35.53;101191.88;146618;666;46010;-70
2023/06/22 12:02:45;;;;;;;;;7.00;7.00;;;;;32.93;35.30;101203.37;146613;570;46918;-70
2023/06/22 12:05:45;;;;;;;;;8.25;7.50;;;;;32.98;34.75;101196.97;146614;608;46021;-72
2023/06/22 12:08:56;;;;;;;;;8.00;7.75;;;;;33.00;34.71;101199.63;146611;675;46016;-68
2023/06/22 12:11:52;;;;;;;;;10.25;8.00;;;;;32.99;35.42;101204.13;146616;703;46023;-69
2023/06/22 12:15:00;;;;;;;;;8.50;8.50;;;;;31.63;35.88;100975.09;146612;595;46016;-71
2023/06/22 12:18:21;;;;;;;;;9.50;8.75;;;;;32.86;35.19;101187.47;146615;666;46010;-69
2023/06/22 12:21:22;;;;;;;;;11.25;11.00;;;;;32.83;36.77;101189.41;146607;576;47012;-69
2023/06/22 12:24:48;;;;;;;;;9.25;9.25;;;;;32.72;36.10;101186.22;146607;664;47010;-69
2023/06/22 12:27:46;;;;;;;;;11.75;10.50;;;;;32.65;37.06;101178.38;146612;690;47013;-69
2023/06/22 12:30:56;;;;;;;;;6.75;6.00;;;;;32.71;38.76;101182.66;146610;674;46020;-69
2023/06/22 12:34:00;;;;;;;;;7.75;7.75;;;;;32.78;36.93;101181.50;146608;570;48916;-69
2023/06/22 12:37:01;;;;;;;;;10.00;10.00;;;;;32.81;38.01;101175.16;146616;596;47010;-70
2023/06/22 12:40:18;;;;;;;;;9.33;8.00;;;;;32.81;36.68;101168.00;146607;616;46016;-69
2023/06/22 12:43:16;;;;;;;;;8.25;8.25;;;;;32.81;37.00;101172.50;146615;705;46010;-70
2023/06/22 12:46:39;;;;;;;;;10.00;10.00;;;;;32.81;36.25;101170.66;146613;572;46016;-70
2023/06/22 12:49:53;;;;;;;;;11.25;10.25;;;;;32.73;37.67;101167.34;146607;692;47015;-69
2023/06/22 12:52:55;;;;;;;;;10.75;10.25;;;;;32.70;36.23;101169.28;146700;572;45022;-72
2023/06/22 12:55:56;;;;;;;;;9.00;8.33;;;;;32.61;36.77;101160.59;146618;616;46016;-68
2023/06/22 12:59:05;;;;;;;;;8.50;8.50;;;;;32.58;37.54;101167.88;146625;675;46022;-70
2023/06/22 13:02:16;;;;;;;;;;;;;;;;;;;;;
2023/06/22 13:05:20;;;;;;;;;9.67;9.67;;;;;32.56;37.54;101156.31;146624;635;46030;-70
2023/06/22 13:08:02;;;;;;;;;6.50;5.50;;;;;32.56;36.42;101157.19;146699;564;46014;-68
2023/06/22 13:11:16;;;;;;;;;;;;;;;;;;;;;
2023/06/22 13:14:20;;;;;;;;;11.00;8.67;;;;;32.44;37.53;101149.56;146616;564;46021;-69
2023/06/22 13:17:42;;;;;;;;;8.00;8.00;;;;;32.39;36.83;101152.34;146614;673;46016;-69
2023/06/22 13:20:50;;;;;;;;;9.00;9.00;;;;;32.27;36.42;101147.38;146621;645;46020;-71
2023/06/22 13:24:16;;;;;;;;;11.75;9.25;;;;;31.40;37.66;100997.25;146616;709;46915;-68
2023/06/22 13:27:22;;;;;;;;;9.00;9.00;;;;;32.14;37.33;101136.16;146619;566;46034;-68
2023/06/22 13:30:27;;;;;;;;;11.75;10.00;;;;;32.10;37.26;101136.31;146613;588;47012;-69
2023/06/22 13:33:25;;;;;;;;;12.25;9.75;;;;;32.09;37.38;101130.06;146614;674;47010;-69
2023/06/22 13:36:39;;;;;;;;;12.75;12.00;;;;;31.18;37.37;100970.19;146616;563;46012;-69
2023/06/22 13:39:35;;;;;;;;;10.25;10.25;;;;;32.17;36.38;101138.72;146616;583;46010;-68
2023/06/22 13:42:35;;;;;;;;;11.25;9.75;;;;;32.19;36.97;101131.53;146608;573;48914;-69
2023/06/22 13:45:50;;;;;;;;;12.75;11.50;;;;;32.24;38.00;101123.31;146623;577;46010;-70
2023/06/22 13:48:47;;;;;;;;;12.25;11.00;;;;;32.37;38.72;101129.19;146607;701;47915;-69
2023/06/22 13:51:48;;;;;;;;;13.00;10.25;;;;;32.48;38.89;101132.41;146613;698;46021;-68
2023/06/22 13:54:44;;;;;;;;;10.75;10.75;;;;;32.54;39.10;101121.47;146610;655;46014;-68
2023/06/22 13:57:42;;;;;;;;;11.00;10.75;;;;;32.57;38.52;101121.34;146611;601;47014;-71
2023/06/22 14:00:45;;;;;;;;;13.00;12.25;;;;;32.57;38.75;101126.72;146609;626;46017;-71
2023/06/22 14:03:51;;;;;;;;;12.50;11.25;;;;;32.55;39.19;101120.53;146612;668;46020;-68
2023/06/22 14:06:47;;;;;;;;;11.25;10.75;;;;;32.50;38.60;101124.31;146610;567;47015;-68
2023/06/22 14:09:57;;;;;;;;;12.25;10.75;;;;;32.50;40.50;101124.31;146614;591;46010;-69
2023/06/22 14:13:09;;;;;;;;;10.00;9.50;;;;;31.13;39.02;100890.00;146610;569;46916;-70
2023/06/22 14:16:04;;;;;;;;;11.75;11.75;;;;;32.49;39.94;101114.50;146621;661;46021;-69
2023/06/22 14:19:13;;;;;;;;;11.75;11.75;;;;;30.42;39.77;100760.09;146610;685;46016;-72